createdAt,value
2016-09-13T00:00:36.754Z,957.02
2016-09-13T00:01:23.478Z,956.99
2016-09-13T00:02:30.803Z,956.98
2016-09-13T00:03:32.127Z,956.94
2016-09-13T00:04:34.132Z,956.94
2016-09-13T00:05:32.404Z,956.95
2016-09-13T00:06:22.583Z,956.98
2016-09-13T00:07:35.668Z,956.94
2016-09-13T00:08:22.811Z,956.93
2016-09-13T00:09:28.886Z,956.92
2016-09-13T00:10:36.410Z,956.91
2016-09-13T00:11:35.646Z,956.92
2016-09-13T00:12:32.294Z,956.85
2016-09-13T00:13:34.614Z,956.90
2016-09-13T00:14:32.087Z,956.86
2016-09-13T00:15:29.228Z,956.89
2016-09-13T00:16:28.383Z,956.88
2016-09-13T00:17:28.401Z,956.87
2016-09-13T00:18:36.417Z,956.85
2016-09-13T00:19:32.798Z,956.84
2016-09-13T00:20:30.823Z,956.83
2016-09-13T00:21:28.459Z,956.87
2016-09-13T00:22:34.727Z,956.82
2016-09-13T00:24:34.476Z,956.85
2016-09-13T00:25:36.913Z,956.85
2016-09-13T00:26:36.263Z,956.84
2016-09-13T00:27:32.907Z,956.84
2016-09-13T00:28:34.717Z,956.86
2016-09-13T00:29:36.190Z,956.88
2016-09-13T00:30:23.402Z,956.85
2016-09-13T00:31:35.668Z,956.89
2016-09-13T00:33:17.957Z,956.86
2016-09-13T00:34:29.067Z,956.86
2016-09-13T00:35:31.469Z,956.84
2016-09-13T00:36:35.787Z,956.85
2016-09-13T00:37:34.756Z,956.83
2016-09-13T00:38:31.097Z,956.85
2016-09-13T00:39:35.402Z,956.81
2016-09-13T00:40:22.622Z,956.85
2016-09-13T00:41:28.768Z,956.85
2016-09-13T00:42:22.994Z,956.83
2016-09-13T00:43:31.433Z,956.81
2016-09-13T00:44:28.866Z,956.80
2016-09-13T00:45:31.622Z,956.80
2016-09-13T00:46:28.298Z,956.80
2016-09-13T00:47:36.266Z,956.83
2016-09-13T00:49:28.316Z,956.77
2016-09-13T00:50:30.674Z,956.77
2016-09-13T00:51:22.682Z,956.82
2016-09-13T00:52:36.017Z,956.79
2016-09-13T00:54:46.874Z,956.81
2016-09-13T00:55:31.850Z,956.78
2016-09-13T00:56:23.015Z,956.77
2016-09-13T00:57:25.540Z,956.75
2016-09-13T00:58:23.341Z,956.75
2016-09-13T00:59:30.723Z,956.76
2016-09-13T01:00:48.473Z,956.76
2016-09-13T01:01:22.644Z,956.76
2016-09-13T01:02:18.808Z,956.74
2016-09-13T01:03:23.053Z,956.72
2016-09-13T01:04:38.505Z,956.72
2016-09-13T01:05:31.286Z,956.71
2016-09-13T01:06:33.690Z,956.71
2016-09-13T01:07:35.166Z,956.71
2016-09-13T01:08:32.476Z,956.67
2016-09-13T01:09:22.703Z,956.73
2016-09-13T01:10:29.192Z,956.69
2016-09-13T01:11:34.827Z,956.72
2016-09-13T01:12:25.314Z,956.69
2016-09-13T01:13:32.570Z,956.69
2016-09-13T01:14:18.771Z,956.73
2016-09-13T01:15:25.714Z,956.73
2016-09-13T01:17:34.392Z,956.72
2016-09-13T01:18:20.560Z,956.69
2016-09-13T01:19:27.803Z,956.73
2016-09-13T01:20:24.471Z,956.70
2016-09-13T01:21:22.696Z,956.70
2016-09-13T01:22:29.811Z,956.72
2016-09-13T01:23:27.992Z,956.71
2016-09-13T01:24:25.507Z,956.72
2016-09-13T01:26:18.730Z,956.72
2016-09-13T01:27:28.400Z,956.74
2016-09-13T01:28:22.587Z,956.71
2016-09-13T01:29:31.894Z,956.70
2016-09-13T01:30:31.193Z,956.69
2016-09-13T01:31:29.612Z,956.70
2016-09-13T01:33:27.027Z,956.71
2016-09-13T01:35:31.913Z,956.73
2016-09-13T01:36:35.240Z,956.73
2016-09-13T01:37:35.597Z,956.74
2016-09-13T01:38:36.656Z,956.72
2016-09-13T01:39:22.893Z,956.68
2016-09-13T01:42:34.147Z,956.68
2016-09-13T01:43:29.441Z,956.65
2016-09-13T01:44:30.927Z,956.66
2016-09-13T01:45:23.156Z,956.68
2016-09-13T01:46:23.652Z,956.64
2016-09-13T01:47:22.768Z,956.60
2016-09-13T01:48:17.732Z,956.66
2016-09-13T01:49:23.583Z,956.66
2016-09-13T01:50:22.827Z,956.62
2016-09-13T01:51:28.972Z,956.63
2016-09-13T01:52:29.181Z,956.59
2016-09-13T01:53:30.552Z,956.60
2016-09-13T01:54:28.202Z,956.57
2016-09-13T01:55:31.566Z,956.54
2016-09-13T01:56:30.927Z,956.54
2016-09-13T01:57:23.127Z,956.55
2016-09-13T01:58:37.486Z,956.59
2016-09-13T01:59:30.325Z,956.52
2016-09-13T02:00:24.790Z,956.57
2016-09-13T02:01:25.140Z,956.55
2016-09-13T02:02:29.189Z,956.53
2016-09-13T02:03:36.226Z,956.54
2016-09-13T02:04:22.874Z,956.54
2016-09-13T02:05:22.914Z,956.55
2016-09-13T02:06:29.065Z,956.52
2016-09-13T02:07:23.276Z,956.54
2016-09-13T02:08:32.858Z,956.54
2016-09-13T02:09:23.016Z,956.54
2016-09-13T02:10:57.271Z,956.50
2016-09-13T02:11:19.573Z,956.54
2016-09-13T02:12:18.674Z,956.52
2016-09-13T02:13:31.983Z,956.49
2016-09-13T02:14:18.875Z,956.51
2016-09-13T02:15:34.286Z,956.49
2016-09-13T02:16:35.628Z,956.50
2016-09-13T02:17:31.967Z,956.49
2016-09-13T02:18:30.416Z,956.48
2016-09-13T02:19:22.575Z,956.48
2016-09-13T02:20:24.497Z,956.51
2016-09-13T02:21:23.037Z,956.53
2016-09-13T02:22:23.249Z,956.43
2016-09-13T02:23:31.604Z,956.46
2016-09-13T02:24:25.191Z,956.48
2016-09-13T02:25:22.436Z,956.46
2016-09-13T02:27:25.553Z,956.48
2016-09-13T02:28:25.736Z,956.49
2016-09-13T02:29:31.155Z,956.51
2016-09-13T02:30:32.086Z,956.52
2016-09-13T02:31:35.279Z,956.51
2016-09-13T02:32:28.597Z,956.57
2016-09-13T02:33:22.525Z,956.60
2016-09-13T02:35:28.094Z,956.59
2016-09-13T02:36:36.404Z,956.60
2016-09-13T02:38:44.160Z,956.60
2016-09-13T02:39:31.437Z,956.55
2016-09-13T02:40:22.658Z,956.59
2016-09-13T02:41:33.483Z,956.60
2016-09-13T02:42:35.661Z,956.57
2016-09-13T02:44:31.792Z,956.51
2016-09-13T02:45:31.114Z,956.50
2016-09-13T02:50:11.573Z,956.52
2016-09-13T02:52:23.877Z,956.49
2016-09-13T02:53:26.100Z,956.56
2016-09-13T02:54:32.431Z,956.51
2016-09-13T02:55:35.747Z,956.50
2016-09-13T02:56:23.012Z,956.53
2016-09-13T02:58:37.901Z,956.51
2016-09-13T02:59:31.313Z,956.47
2016-09-13T03:01:23.062Z,956.48
2016-09-13T03:02:28.636Z,956.47
2016-09-13T03:03:36.706Z,956.49
2016-09-13T03:04:31.096Z,956.43
2016-09-13T03:05:29.260Z,956.44
2016-09-13T03:06:28.329Z,956.45
2016-09-13T03:07:23.136Z,956.45
2016-09-13T03:08:34.464Z,956.45
2016-09-13T03:09:27.952Z,956.44
2016-09-13T03:10:32.395Z,956.45
2016-09-13T03:11:30.744Z,956.43
2016-09-13T03:12:28.954Z,956.39
2016-09-13T03:13:32.135Z,956.38
2016-09-13T03:14:29.264Z,956.38
2016-09-13T03:15:25.822Z,956.44
2016-09-13T03:16:22.815Z,956.39
2016-09-13T03:17:22.672Z,956.41
2016-09-13T03:18:17.816Z,956.39
2016-09-13T03:19:28.207Z,956.37
2016-09-13T03:20:24.969Z,956.36
2016-09-13T03:21:23.458Z,956.36
2016-09-13T03:22:35.324Z,956.36
2016-09-13T03:23:33.529Z,956.32
2016-09-13T03:24:22.777Z,956.29
2016-09-13T03:25:33.983Z,956.31
2016-09-13T03:26:25.428Z,956.31
2016-09-13T03:27:22.536Z,956.30
2016-09-13T03:28:22.661Z,956.32
2016-09-13T03:29:28.741Z,956.30
2016-09-13T03:31:28.179Z,956.27
2016-09-13T03:32:31.355Z,956.32
2016-09-13T03:33:28.451Z,956.30
2016-09-13T03:34:29.388Z,956.29
2016-09-13T03:36:31.463Z,956.31
2016-09-13T03:37:36.345Z,956.32
2016-09-13T03:38:18.400Z,956.33
2016-09-13T03:39:38.702Z,956.36
2016-09-13T03:41:31.113Z,956.29
2016-09-13T03:42:19.099Z,956.32
2016-09-13T03:43:36.375Z,956.30
2016-09-13T03:44:30.684Z,956.29
2016-09-13T03:45:26.137Z,956.28
2016-09-13T03:46:23.298Z,956.27
2016-09-13T03:47:31.124Z,956.26
2016-09-13T03:48:18.491Z,956.23
2016-09-13T03:49:22.673Z,956.24
2016-09-13T03:50:22.913Z,956.26
2016-09-13T03:51:20.026Z,956.24
2016-09-13T03:52:36.939Z,956.23
2016-09-13T03:53:26.705Z,956.23
2016-09-13T03:54:34.970Z,956.28
2016-09-13T03:55:35.268Z,956.25
2016-09-13T03:57:36.130Z,956.20
2016-09-13T03:58:37.141Z,956.24
2016-09-13T04:00:22.693Z,956.21
2016-09-13T04:01:36.002Z,956.22
2016-09-13T04:02:31.129Z,956.21
2016-09-13T04:03:33.533Z,956.22
2016-09-13T04:04:30.874Z,956.22
2016-09-13T04:05:33.218Z,956.19
2016-09-13T04:06:30.521Z,956.21
2016-09-13T04:07:33.807Z,956.20
2016-09-13T04:08:31.197Z,956.19
2016-09-13T04:09:30.857Z,956.19
2016-09-13T04:11:31.261Z,956.26
2016-09-13T04:12:31.629Z,956.22
2016-09-13T04:13:33.934Z,956.23
2016-09-13T04:14:37.095Z,956.24
2016-09-13T04:15:28.886Z,956.20
2016-09-13T04:16:36.315Z,956.22
2016-09-13T04:17:28.691Z,956.21
2016-09-13T04:18:31.594Z,956.20
2016-09-13T04:19:28.132Z,956.16
2016-09-13T04:20:29.958Z,956.19
2016-09-13T04:21:29.755Z,956.19
2016-09-13T04:22:30.671Z,956.19
2016-09-13T04:23:33.885Z,956.15
2016-09-13T04:24:29.017Z,956.19
2016-09-13T04:25:34.335Z,956.15
2016-09-13T04:26:31.458Z,956.15
2016-09-13T04:29:34.404Z,956.14
2016-09-13T04:30:31.617Z,956.14
2016-09-13T04:31:18.893Z,956.14
2016-09-13T04:32:34.137Z,956.15
2016-09-13T04:33:28.739Z,956.13
2016-09-13T04:34:23.254Z,956.16
2016-09-13T04:35:33.594Z,956.14
2016-09-13T04:36:33.997Z,956.16
2016-09-13T04:37:20.162Z,956.16
2016-09-13T04:38:25.689Z,956.22
2016-09-13T04:39:34.391Z,956.25
2016-09-13T04:40:30.625Z,956.18
2016-09-13T04:41:34.559Z,956.18
2016-09-13T04:42:24.362Z,956.23
2016-09-13T04:43:36.123Z,956.19
2016-09-13T04:44:32.539Z,956.23
2016-09-13T04:45:28.636Z,956.23
2016-09-13T04:47:31.162Z,956.27
2016-09-13T04:48:25.688Z,956.29
2016-09-13T04:49:35.803Z,956.28
2016-09-13T04:50:36.157Z,956.30
2016-09-13T04:51:19.080Z,956.27
2016-09-13T04:52:25.638Z,956.28
2016-09-13T04:53:29.746Z,956.30
2016-09-13T04:54:22.700Z,956.30
2016-09-13T04:55:28.870Z,956.29
2016-09-13T04:56:25.327Z,956.27
2016-09-13T04:57:26.119Z,956.27
2016-09-13T04:58:29.299Z,956.29
2016-09-13T04:59:22.816Z,956.30
2016-09-13T05:00:18.188Z,956.30
2016-09-13T05:01:31.047Z,956.31
2016-09-13T05:02:33.281Z,956.31
2016-09-13T05:03:27.924Z,956.30
2016-09-13T05:04:35.201Z,956.29
2016-09-13T05:06:28.900Z,956.32
2016-09-13T05:07:35.203Z,956.32
2016-09-13T05:08:28.040Z,956.35
2016-09-13T05:10:18.562Z,956.33
2016-09-13T05:11:30.437Z,956.35
2016-09-13T05:12:34.673Z,956.34
2016-09-13T05:13:28.859Z,956.35
2016-09-13T05:16:30.612Z,956.34
2016-09-13T05:17:28.876Z,956.35
2016-09-13T05:19:28.684Z,956.37
2016-09-13T05:20:24.654Z,956.37
2016-09-13T05:21:35.908Z,956.42
2016-09-13T05:22:32.302Z,956.43
2016-09-13T05:23:27.846Z,956.40
2016-09-13T05:25:17.641Z,956.42
2016-09-13T05:26:22.776Z,956.42
2016-09-13T05:27:28.531Z,956.38
2016-09-13T05:28:18.985Z,956.44
2016-09-13T05:29:23.123Z,956.42
2016-09-13T05:30:31.535Z,956.39
2016-09-13T05:31:34.384Z,956.41
2016-09-13T05:32:28.068Z,956.42
2016-09-13T05:34:28.764Z,956.37
2016-09-13T05:35:23.049Z,956.40
2016-09-13T05:36:18.655Z,956.39
2016-09-13T05:37:18.191Z,956.41
2016-09-13T05:38:33.601Z,956.41
2016-09-13T05:39:12.722Z,956.40
2016-09-13T05:40:32.976Z,956.38
2016-09-13T05:42:19.109Z,956.40
2016-09-13T05:43:25.731Z,956.37
2016-09-13T05:44:36.612Z,956.41
2016-09-13T05:45:36.958Z,956.42
2016-09-13T05:46:22.819Z,956.42
2016-09-13T05:47:29.005Z,956.40
2016-09-13T05:48:30.682Z,956.43
2016-09-13T05:49:22.891Z,956.40
2016-09-13T05:50:25.284Z,956.37
2016-09-13T05:51:30.596Z,956.41
2016-09-13T05:52:34.406Z,956.38
2016-09-13T05:54:18.626Z,956.41
2016-09-13T05:55:22.867Z,956.43
2016-09-13T05:56:30.073Z,956.37
2016-09-13T05:57:31.411Z,956.37
2016-09-13T05:58:30.639Z,956.34
2016-09-13T05:59:18.027Z,956.38
2016-09-13T06:00:31.378Z,956.37
2016-09-13T06:01:22.630Z,956.36
2016-09-13T06:02:22.896Z,956.36
2016-09-13T06:03:24.937Z,956.38
2016-09-13T06:04:19.173Z,956.45
2016-09-13T06:05:18.724Z,956.41
2016-09-13T06:06:17.924Z,956.44
2016-09-13T06:07:23.177Z,956.44
2016-09-13T06:08:31.706Z,956.46
2016-09-13T06:09:31.133Z,956.45
2016-09-13T06:10:18.526Z,956.41
2016-09-13T06:11:31.866Z,956.43
2016-09-13T06:12:22.885Z,956.41
2016-09-13T06:13:28.291Z,956.43
2016-09-13T06:14:28.632Z,956.45
2016-09-13T06:15:22.833Z,956.42
2016-09-13T06:16:23.045Z,956.44
2016-09-13T06:17:31.454Z,956.44
2016-09-13T06:18:31.440Z,956.47
2016-09-13T06:19:32.373Z,956.45
2016-09-13T06:20:52.738Z,956.46
2016-09-13T06:23:23.182Z,956.52
2016-09-13T06:24:30.452Z,956.52
2016-09-13T06:25:26.255Z,956.51
2016-09-13T06:26:31.418Z,956.51
2016-09-13T06:27:36.276Z,956.51
2016-09-13T06:28:33.798Z,956.51
2016-09-13T06:29:28.483Z,956.49
2016-09-13T06:30:56.804Z,956.47
2016-09-13T06:31:18.654Z,956.51
2016-09-13T06:32:22.917Z,956.51
2016-09-13T06:33:29.737Z,956.51
2016-09-13T06:34:36.701Z,956.50
2016-09-13T06:35:32.055Z,956.54
2016-09-13T06:36:31.391Z,956.50
2016-09-13T06:37:28.467Z,956.49
2016-09-13T06:38:33.759Z,956.52
2016-09-13T06:39:31.670Z,956.56
2016-09-13T06:40:32.052Z,956.51
2016-09-13T06:41:18.589Z,956.56
2016-09-13T06:42:28.339Z,956.54
2016-09-13T06:44:35.255Z,956.55
2016-09-13T06:45:31.457Z,956.55
2016-09-13T06:46:25.400Z,956.57
2016-09-13T06:47:28.477Z,956.58
2016-09-13T06:48:31.779Z,956.56
2016-09-13T06:49:34.510Z,956.54
2016-09-13T06:50:31.804Z,956.57
2016-09-13T06:52:30.739Z,956.64
2016-09-13T06:53:32.113Z,956.59
2016-09-13T06:55:33.103Z,956.62
2016-09-13T06:56:29.191Z,956.58
2016-09-13T06:57:19.027Z,956.61
2016-09-13T06:58:26.073Z,956.57
2016-09-13T07:00:29.079Z,956.61
2016-09-13T07:01:37.357Z,956.58
2016-09-13T07:02:18.057Z,956.58
2016-09-13T07:03:29.480Z,956.60
2016-09-13T07:04:28.611Z,956.61
2016-09-13T07:06:33.830Z,956.60
2016-09-13T07:07:18.197Z,956.59
2016-09-13T07:08:33.228Z,956.59
2016-09-13T07:09:25.130Z,956.59
2016-09-13T07:10:45.910Z,956.54
2016-09-13T07:11:31.308Z,956.59
2016-09-13T07:13:36.381Z,956.57
2016-09-13T07:14:31.701Z,956.54
2016-09-13T07:15:32.041Z,956.53
2016-09-13T07:16:18.670Z,956.53
2016-09-13T07:17:22.787Z,956.50
2016-09-13T07:18:31.132Z,956.49
2016-09-13T07:19:19.008Z,956.48
2016-09-13T07:21:00.492Z,956.51
2016-09-13T07:21:35.654Z,956.51
2016-09-13T07:22:22.905Z,956.53
2016-09-13T07:23:22.889Z,956.54
2016-09-13T07:24:25.142Z,956.55
2016-09-13T07:25:23.245Z,956.53
2016-09-13T07:26:31.084Z,956.53
2016-09-13T07:27:31.506Z,956.57
2016-09-13T07:28:29.110Z,956.54
2016-09-13T07:29:32.483Z,956.56
2016-09-13T07:31:24.335Z,956.53
2016-09-13T07:32:22.794Z,956.58
2016-09-13T07:33:23.003Z,956.56
2016-09-13T07:34:28.396Z,956.58
2016-09-13T07:35:28.894Z,956.57
2016-09-13T07:36:29.266Z,956.61
2016-09-13T07:37:34.380Z,956.59
2016-09-13T07:38:18.627Z,956.59
2016-09-13T07:39:18.742Z,956.61
2016-09-13T07:40:34.087Z,956.64
2016-09-13T07:41:23.510Z,956.63
2016-09-13T07:42:25.650Z,956.59
2016-09-13T07:43:24.556Z,956.63
2016-09-13T07:44:14.985Z,956.60
2016-09-13T07:45:28.026Z,956.62
2016-09-13T07:46:23.239Z,956.63
2016-09-13T07:47:22.294Z,956.60
2016-09-13T07:48:22.206Z,956.61
2016-09-13T07:49:28.484Z,956.59
2016-09-13T07:50:54.767Z,956.60
2016-09-13T07:51:27.396Z,956.59
2016-09-13T07:52:34.387Z,956.58
2016-09-13T07:55:27.750Z,956.55
2016-09-13T07:55:33.063Z,956.58
2016-09-13T07:56:18.283Z,956.58
2016-09-13T07:57:19.377Z,956.57
2016-09-13T07:58:19.128Z,956.57
2016-09-13T07:59:18.412Z,956.59
2016-09-13T08:00:18.505Z,956.64
2016-09-13T08:01:23.909Z,956.64
2016-09-13T08:02:18.748Z,956.57
2016-09-13T08:03:22.979Z,956.63
2016-09-13T08:04:22.941Z,956.60
2016-09-13T08:05:18.751Z,956.61
2016-09-13T08:06:28.955Z,956.62
2016-09-13T08:07:23.123Z,956.60
2016-09-13T08:08:37.476Z,956.60
2016-09-13T08:09:23.458Z,956.57
2016-09-13T08:10:26.648Z,956.58
2016-09-13T08:11:26.750Z,956.60
2016-09-13T08:12:22.843Z,956.58
2016-09-13T08:13:17.907Z,956.58
2016-09-13T08:14:23.592Z,956.62
2016-09-13T08:15:19.248Z,956.62
2016-09-13T08:16:27.653Z,956.58
2016-09-13T08:17:22.429Z,956.62
2016-09-13T08:18:25.114Z,956.58
2016-09-13T08:19:26.364Z,956.58
2016-09-13T08:20:18.398Z,956.61
2016-09-13T08:21:22.949Z,956.64
2016-09-13T08:22:18.415Z,956.62
2016-09-13T08:23:30.646Z,956.59
2016-09-13T08:24:28.865Z,956.62
2016-09-13T08:25:33.475Z,956.61
2016-09-13T08:26:28.463Z,956.63
2016-09-13T08:27:28.804Z,956.64
2016-09-13T08:28:22.567Z,956.58
2016-09-13T08:29:22.514Z,956.56
2016-09-13T08:30:25.898Z,956.61
2016-09-13T08:31:29.249Z,956.59
2016-09-13T08:32:17.668Z,956.54
2016-09-13T08:33:27.975Z,956.52
2016-09-13T08:34:26.185Z,956.53
2016-09-13T08:36:29.133Z,956.56
2016-09-13T08:38:18.562Z,956.53
2016-09-13T08:39:25.777Z,956.48
2016-09-13T08:41:17.726Z,956.52
2016-09-13T08:42:25.709Z,956.52
2016-09-13T08:43:25.872Z,956.48
2016-09-13T08:44:31.939Z,956.47
2016-09-13T08:45:22.767Z,956.52
2016-09-13T08:46:25.954Z,956.49
2016-09-13T08:48:28.788Z,956.48
2016-09-13T08:49:28.057Z,956.47
2016-09-13T08:50:26.255Z,956.49
2016-09-13T08:51:25.503Z,956.46
2016-09-13T08:52:28.672Z,956.47
2016-09-13T08:53:22.711Z,956.47
2016-09-13T08:54:19.348Z,956.45
2016-09-13T08:55:25.650Z,956.40
2016-09-13T08:56:28.967Z,956.43
2016-09-13T08:57:18.977Z,956.39
2016-09-13T08:58:37.596Z,956.39
2016-09-13T08:59:28.974Z,956.36
2016-09-13T09:00:29.510Z,956.35
2016-09-13T09:02:26.889Z,956.37
2016-09-13T09:03:26.154Z,956.34
2016-09-13T09:04:17.332Z,956.35
2016-09-13T09:05:26.256Z,956.35
2016-09-13T09:07:23.130Z,956.30
2016-09-13T09:08:26.398Z,956.28
2016-09-13T09:09:25.637Z,956.29
2016-09-13T09:10:25.876Z,956.29
2016-09-13T09:11:18.856Z,956.27
2016-09-13T09:12:18.928Z,956.22
2016-09-13T09:13:22.759Z,956.24
2016-09-13T09:14:25.820Z,956.25
2016-09-13T09:16:22.622Z,956.21
2016-09-13T09:17:29.050Z,956.22
2016-09-13T09:18:26.190Z,956.21
2016-09-13T09:19:25.505Z,956.18
2016-09-13T09:23:25.658Z,956.22
2016-09-13T09:24:33.988Z,956.21
2016-09-13T09:25:26.190Z,956.18
2016-09-13T09:26:38.297Z,956.20
2016-09-13T09:28:18.775Z,956.22
2016-09-13T09:33:22.833Z,956.17
2016-09-13T09:34:29.006Z,956.16
2016-09-13T09:35:23.159Z,956.18
2016-09-13T09:36:23.386Z,956.15
2016-09-13T09:37:29.071Z,956.12
2016-09-13T09:38:23.173Z,956.16
2016-09-13T09:39:26.361Z,956.08
2016-09-13T09:40:26.581Z,956.10
2016-09-13T09:42:17.341Z,956.08
2016-09-13T09:43:25.576Z,956.06
2016-09-13T09:45:25.416Z,956.11
2016-09-13T09:46:25.635Z,956.07
2016-09-13T09:47:22.230Z,956.08
2016-09-13T09:48:25.409Z,956.05
2016-09-13T09:49:26.230Z,956.03
2016-09-13T09:50:21.805Z,956.06
2016-09-13T09:53:29.331Z,956.02
2016-09-13T09:54:26.516Z,955.99
2016-09-13T09:55:25.878Z,955.96
2016-09-13T09:56:26.182Z,955.92
2016-09-13T09:58:26.155Z,955.95
2016-09-13T10:00:26.023Z,955.89
2016-09-13T10:01:26.261Z,955.92
2016-09-13T10:05:25.429Z,955.87
2016-09-13T10:06:25.651Z,955.84
2016-09-13T10:08:25.602Z,955.84
2016-09-13T10:09:19.164Z,955.86
2016-09-13T10:10:26.360Z,955.83
2016-09-13T10:11:28.553Z,955.79
2016-09-13T10:15:25.651Z,955.78
2016-09-13T10:16:25.856Z,955.80
2016-09-13T10:17:29.053Z,955.80
2016-09-13T10:18:23.229Z,955.77
2016-09-13T10:19:19.422Z,955.78
2016-09-13T10:21:12.851Z,955.72
2016-09-13T10:23:18.634Z,955.72
2016-09-13T10:24:19.577Z,955.73
2016-09-13T10:25:18.684Z,955.76
2016-09-13T10:26:28.526Z,955.69
2016-09-13T10:27:18.033Z,955.77
2016-09-13T10:30:42.474Z,955.66
2016-09-13T10:31:18.659Z,955.72
2016-09-13T10:33:27.898Z,955.69
2016-09-13T10:34:18.727Z,955.64
2016-09-13T10:36:18.667Z,955.59
2016-09-13T10:37:25.932Z,955.61
2016-09-13T10:38:19.359Z,955.62
2016-09-13T10:39:25.217Z,955.57
2016-09-13T10:41:26.090Z,955.58
2016-09-13T10:42:26.363Z,955.55
2016-09-13T10:44:12.893Z,955.57
2016-09-13T10:45:17.095Z,955.60
2016-09-13T10:46:22.425Z,955.57
2016-09-13T10:47:12.411Z,955.52
2016-09-13T10:48:19.849Z,955.47
2016-09-13T10:49:19.906Z,955.51
2016-09-13T10:50:18.384Z,955.48
2016-09-13T10:51:28.223Z,955.50
2016-09-13T10:52:18.021Z,955.46
2016-09-13T10:53:31.176Z,955.44
2016-09-13T10:54:19.956Z,955.48
2016-09-13T10:55:18.135Z,955.49
2016-09-13T10:56:29.235Z,955.45
2016-09-13T10:57:25.330Z,955.46
2016-09-13T10:58:29.127Z,955.46
2016-09-13T10:59:26.323Z,955.43
2016-09-13T11:00:52.616Z,955.44
2016-09-13T11:01:22.001Z,955.44
2016-09-13T11:06:34.129Z,955.40
2016-09-13T11:07:23.244Z,955.43
2016-09-13T11:08:34.536Z,955.39
2016-09-13T11:09:19.744Z,955.42
2016-09-13T11:11:27.693Z,955.39
2016-09-13T11:12:28.364Z,955.41
2016-09-13T11:13:27.965Z,955.44
2016-09-13T11:14:26.256Z,955.36
2016-09-13T11:15:25.445Z,955.35
2016-09-13T11:16:28.795Z,955.39
2016-09-13T11:17:25.396Z,955.38
2016-09-13T11:18:25.556Z,955.41
2016-09-13T11:19:17.792Z,955.38
2016-09-13T11:20:28.170Z,955.34
2016-09-13T11:21:25.910Z,955.30
2016-09-13T11:22:26.057Z,955.29
2016-09-13T11:23:26.327Z,955.29
2016-09-13T11:24:25.082Z,955.23
2016-09-13T11:25:28.364Z,955.22
2016-09-13T11:26:18.939Z,955.24
2016-09-13T11:28:29.818Z,955.22
2016-09-13T11:29:26.005Z,955.24
2016-09-13T11:30:26.278Z,955.21
2016-09-13T11:31:27.573Z,955.22
2016-09-13T11:32:19.463Z,955.22
2016-09-13T11:33:17.857Z,955.20
2016-09-13T11:34:26.038Z,955.18
2016-09-13T11:35:25.752Z,955.16
2016-09-13T11:36:18.481Z,955.17
2016-09-13T11:37:22.532Z,955.15
2016-09-13T11:38:32.566Z,955.17
2016-09-13T11:39:20.043Z,955.12
2016-09-13T11:40:27.286Z,955.14
2016-09-13T11:41:25.494Z,955.13
2016-09-13T11:42:28.835Z,955.11
2016-09-13T11:43:18.471Z,955.13
2016-09-13T11:44:31.163Z,955.10
2016-09-13T11:45:18.626Z,955.12
2016-09-13T11:46:30.300Z,955.12
2016-09-13T11:47:22.491Z,955.12
2016-09-13T11:49:18.340Z,955.15
2016-09-13T11:50:25.546Z,955.14
2016-09-13T11:51:18.339Z,955.14
2016-09-13T11:53:34.172Z,955.13
2016-09-13T11:54:23.366Z,955.14
2016-09-13T11:56:28.695Z,955.10
2016-09-13T11:57:28.876Z,955.08
2016-09-13T11:58:26.102Z,955.08
2016-09-13T11:59:23.331Z,955.10
2016-09-13T12:00:23.571Z,955.07
2016-09-13T12:01:28.880Z,955.05
2016-09-13T12:03:22.598Z,955.06
2016-09-13T12:04:25.804Z,955.07
2016-09-13T12:05:26.118Z,955.06
2016-09-13T12:06:18.183Z,955.04
2016-09-13T12:07:25.826Z,955.00
2016-09-13T12:08:26.123Z,955.04
2016-09-13T12:10:28.185Z,954.97
2016-09-13T12:11:17.778Z,954.97
2016-09-13T12:12:26.035Z,954.96
2016-09-13T12:13:26.334Z,955.00
2016-09-13T12:14:26.512Z,954.95
2016-09-13T12:16:45.735Z,954.91
2016-09-13T12:17:25.559Z,954.94
2016-09-13T12:18:18.773Z,954.93
2016-09-13T12:20:25.579Z,954.93
2016-09-13T12:21:28.336Z,954.93
2016-09-13T12:22:17.938Z,954.87
2016-09-13T12:23:29.749Z,954.87
2016-09-13T12:24:18.487Z,954.94
2016-09-13T12:25:19.183Z,954.89
2016-09-13T12:27:22.066Z,954.83
2016-09-13T12:28:19.047Z,954.88
2016-09-13T12:29:22.787Z,954.84
2016-09-13T12:30:19.555Z,954.82
2016-09-13T12:31:22.140Z,954.82
2016-09-13T12:32:18.543Z,954.84
2016-09-13T12:34:18.774Z,954.74
2016-09-13T12:35:24.262Z,954.75
2016-09-13T12:36:27.971Z,954.73
2016-09-13T12:37:26.221Z,954.79
2016-09-13T12:38:18.156Z,954.80
2016-09-13T12:39:20.373Z,954.72
2016-09-13T12:40:32.648Z,954.74
2016-09-13T12:41:18.600Z,954.75
2016-09-13T12:42:19.485Z,954.74
2016-09-13T12:43:22.375Z,954.70
2016-09-13T12:44:23.200Z,954.70
2016-09-13T12:45:27.509Z,954.73
2016-09-13T12:46:22.111Z,954.69
2016-09-13T12:48:19.031Z,954.71
2016-09-13T12:49:28.925Z,954.65
2016-09-13T12:50:19.225Z,954.70
2016-09-13T12:52:18.561Z,954.68
2016-09-13T12:53:48.778Z,954.67
2016-09-13T12:54:22.469Z,954.62
2016-09-13T12:55:35.756Z,954.62
2016-09-13T12:56:18.135Z,954.64
2016-09-13T12:57:18.368Z,954.62
2016-09-13T12:58:21.648Z,954.60
2016-09-13T12:59:18.731Z,954.60
2016-09-13T13:00:17.745Z,954.61
2016-09-13T13:02:29.661Z,954.58
2016-09-13T13:03:18.361Z,954.61
2016-09-13T13:04:18.069Z,954.54
2016-09-13T13:05:23.885Z,954.49
2016-09-13T13:06:28.633Z,954.53
2016-09-13T13:07:18.801Z,954.52
2016-09-13T13:08:53.830Z,954.49
2016-09-13T13:09:22.386Z,954.52
2016-09-13T13:10:28.606Z,954.51
2016-09-13T13:11:19.790Z,954.48
2016-09-13T13:12:25.978Z,954.44
2016-09-13T13:13:26.208Z,954.40
2016-09-13T13:14:28.353Z,954.41
2016-09-13T13:15:27.920Z,954.44
2016-09-13T13:16:18.008Z,954.41
2016-09-13T13:17:17.723Z,954.43
2016-09-13T13:18:28.994Z,954.39
2016-09-13T13:19:18.455Z,954.42
2016-09-13T13:20:18.106Z,954.40
2016-09-13T13:21:18.588Z,954.41
2016-09-13T13:22:12.779Z,954.46
2016-09-13T13:23:25.407Z,954.39
2016-09-13T13:24:22.105Z,954.40
2016-09-13T13:25:26.293Z,954.38
2016-09-13T13:26:25.569Z,954.36
2016-09-13T13:27:17.897Z,954.34
2016-09-13T13:28:18.343Z,954.32
2016-09-13T13:29:17.994Z,954.34
2016-09-13T13:30:22.583Z,954.29
2016-09-13T13:31:18.034Z,954.34
2016-09-13T13:32:26.235Z,954.37
2016-09-13T13:33:27.545Z,954.34
2016-09-13T13:34:22.157Z,954.37
2016-09-13T13:35:19.647Z,954.34
2016-09-13T13:36:22.893Z,954.35
2016-09-13T13:37:22.488Z,954.34
2016-09-13T13:38:22.098Z,954.35
2016-09-13T13:39:25.432Z,954.31
2016-09-13T13:40:33.594Z,954.30
2016-09-13T13:41:25.975Z,954.31
2016-09-13T13:42:26.263Z,954.35
2016-09-13T13:43:17.956Z,954.34
2016-09-13T13:44:18.351Z,954.26
2016-09-13T13:45:22.874Z,954.29
2016-09-13T13:46:18.989Z,954.23
2016-09-13T13:47:22.545Z,954.23
2016-09-13T13:48:22.185Z,954.29
2016-09-13T13:50:18.778Z,954.26
2016-09-13T13:52:23.455Z,954.24
2016-09-13T13:53:28.587Z,954.24
2016-09-13T13:54:25.661Z,954.19
2016-09-13T13:55:18.086Z,954.18
2016-09-13T13:56:24.769Z,954.20
2016-09-13T13:57:19.671Z,954.20
2016-09-13T13:59:25.250Z,954.22
2016-09-13T14:00:25.599Z,954.18
2016-09-13T14:01:25.883Z,954.11
2016-09-13T14:02:18.524Z,954.14
2016-09-13T14:04:26.870Z,954.13
2016-09-13T14:05:19.783Z,954.12
2016-09-13T14:06:19.887Z,954.16
2016-09-13T14:10:18.426Z,954.08
2016-09-13T14:11:24.959Z,954.10
2016-09-13T14:12:18.946Z,954.10
2016-09-13T14:13:25.763Z,954.10
2016-09-13T14:14:18.701Z,954.08
2016-09-13T14:15:25.988Z,954.09
2016-09-13T14:16:19.344Z,954.07
2016-09-13T14:17:18.811Z,954.12
2016-09-13T14:18:28.115Z,954.09